Time;durP1;ratioP1;P1;durP2;ratioP2;P2;SDS_P1;SDS_P2;PMS_P1;PMS_P2;Temp;Humidity;BMP_temperature;BMP_pressure;BME280_temperature;BME280_humidity;BME280_pressure;Samples;Min_cycle;Max_cycle;Signal;HPM_P1;HPM_P2
2020/12/02 00:00:43;;;;;;;24.04;17.72;;;7.60;99.90;;;13.31;78.34;102013.91;1722166;73;24539;-78
2020/12/02 00:03:04;;;;;;;23.67;17.44;;;7.60;99.90;;;13.29;79.22;102009.09;1718339;73;24463;-78
2020/12/02 00:05:22;;;;;;;23.65;17.45;;;7.60;99.90;;;13.37;78.42;102012.28;1719030;73;24443;-78
2020/12/02 00:07:39;;;;;;;23.36;17.64;;;7.60;99.90;;;13.30;78.64;102014.77;1726400;73;24519;-78
2020/12/02 00:09:56;;;;;;;24.07;17.64;;;7.60;99.90;;;13.31;78.08;102013.48;1717870;73;24429;-78
2020/12/02 00:12:14;;;;;;;22.80;17.46;;;7.60;99.90;;;13.17;78.38;102012.78;1717201;73;24437;-76
2020/12/02 00:17:08;;;;;;;22.86;17.06;;;7.60;99.90;;;13.44;78.26;102014.59;1749423;72;25223;-77
2020/12/02 00:19:26;;;;;;;23.20;17.86;;;7.60;99.90;;;13.04;78.96;102009.05;1723257;72;24927;-77
2020/12/02 00:21:44;;;;;;;22.78;17.82;;;7.60;99.90;;;13.01;80.05;102010.75;1718020;74;25036;-78
2020/12/02 00:24:03;;;;;;;24.80;18.09;;;7.60;99.90;;;13.12;80.23;102007.47;1719994;74;24924;-77
2020/12/02 00:26:21;;;;;;;25.67;17.63;;;7.50;99.90;;;12.99;80.01;102011.97;1718740;74;24429;-76
2020/12/02 00:28:37;;;;;;;26.66;19.12;;;7.50;99.90;;;12.93;80.11;102007.08;1713612;74;24451;-78
2020/12/02 00:30:55;;;;;;;25.61;18.81;;;7.50;99.90;;;13.01;80.10;102012.92;1721367;74;24491;-79
2020/12/02 00:33:16;;;;;;;25.56;18.30;;;7.50;99.90;;;12.91;80.36;102013.58;1724966;74;24505;-76
2020/12/02 00:35:33;;;;;;;24.45;17.53;;;7.50;99.90;;;13.02;80.04;102012.51;1725792;74;24618;-78
2020/12/02 00:37:54;;;;;;;24.11;18.20;;;7.40;99.90;;;13.04;79.79;102011.67;1715608;74;24475;-79
2020/12/02 00:40:13;;;;;;;25.34;18.95;;;7.40;99.90;;;13.01;80.97;102012.92;1720515;74;24924;-77
2020/12/02 00:42:31;;;;;;;25.43;17.78;;;7.50;99.90;;;13.04;80.58;102016.89;1717634;74;25650;-77
2020/12/02 00:44:46;;;;;;;25.94;18.35;;;7.40;99.90;;;13.00;79.96;102008.94;1719627;74;24487;-78
2020/12/02 00:47:04;;;;;;;23.87;17.88;;;7.40;99.90;;;12.73;79.85;102007.08;1727945;74;24426;-76
2020/12/02 00:49:20;;;;;;;25.71;18.55;;;7.40;99.90;;;12.93;81.25;102009.69;1728024;74;24465;-77
2020/12/02 00:51:36;;;;;;;24.65;18.08;;;7.40;99.90;;;13.06;80.45;102015.20;1718120;73;24975;-77
2020/12/02 00:53:52;;;;;;;25.29;18.88;;;7.40;99.90;;;13.13;79.95;102006.64;1721168;74;24509;-77
2020/12/02 00:56:14;;;;;;;25.01;17.89;;;7.50;99.90;;;13.05;80.18;102000.38;1722620;74;24447;-76
2020/12/02 00:58:40;;;;;;;23.25;18.00;;;7.40;99.90;;;13.10;80.71;101999.15;1721545;74;24490;-76
2020/12/02 01:01:00;;;;;;;23.51;18.35;;;7.40;99.90;;;13.00;79.69;101993.25;1725040;74;24508;-76
2020/12/02 01:03:21;;;;;;;23.60;17.82;;;7.40;99.90;;;12.82;81.32;101988.55;1708332;74;24929;-76
2020/12/02 01:05:39;;;;;;;22.38;17.83;;;7.40;99.90;;;13.08;80.65;101989.97;1713009;74;24466;-76
2020/12/02 01:07:55;;;;;;;23.78;17.60;;;7.40;99.90;;;12.96;80.38;101988.38;1720244;74;24431;-75
2020/12/02 01:10:13;;;;;;;24.21;17.88;;;7.40;99.90;;;12.94;80.17;101988.80;1712678;74;24467;-76
2020/12/02 01:12:30;;;;;;;21.58;17.14;;;7.40;99.90;;;12.94;80.37;101989.22;1723845;74;24436;-76
2020/12/02 01:14:48;;;;;;;22.84;17.96;;;7.40;99.90;;;13.05;80.62;101988.61;1723706;74;24438;-76
2020/12/02 01:17:05;;;;;;;23.72;17.80;;;7.40;99.90;;;13.03;80.16;101986.80;1725068;73;24878;-77
2020/12/02 01:19:25;;;;;;;22.22;17.59;;;7.40;99.90;;;13.09;80.70;101989.52;1726523;72;24538;-78
2020/12/02 01:21:46;;;;;;;23.68;17.67;;;7.40;99.90;;;12.88;80.36;101983.88;1722647;74;24459;-80
2020/12/02 01:24:08;;;;;;;25.15;18.41;;;7.40;99.90;;;13.00;80.93;101986.71;1733361;74;24478;-77
2020/12/02 01:26:31;;;;;;;24.66;18.59;;;7.40;99.90;;;12.97;81.44;101981.02;1712848;73;24492;-76
2020/12/02 01:28:52;;;;;;;23.35;17.62;;;7.40;99.90;;;13.02;80.93;101978.09;1719607;74;24506;-77
2020/12/02 01:31:09;;;;;;;24.28;18.19;;;7.40;99.90;;;13.01;79.99;101979.37;1721109;73;24504;-78
2020/12/02 01:33:25;;;;;;;25.79;18.76;;;7.40;99.90;;;12.92;80.88;101974.81;1730051;74;24501;-78
2020/12/02 01:35:46;;;;;;;25.59;18.67;;;7.40;99.90;;;13.11;80.60;101978.67;1714836;72;24453;-77
2020/12/02 01:38:08;;;;;;;25.10;18.32;;;7.40;99.90;;;13.12;79.74;101980.01;1721766;74;24454;-77
2020/12/02 01:40:29;;;;;;;24.15;18.40;;;7.30;99.90;;;12.95;80.43;101978.78;1727673;74;24502;-77
2020/12/02 01:42:49;;;;;;;25.52;18.31;;;7.40;99.90;;;12.99;80.42;101982.34;1735688;73;24430;-77
2020/12/02 01:48:24;;;;;;;23.64;18.00;;;7.30;99.90;;;13.18;81.22;101981.42;1811941;69;25259;-77
2020/12/02 01:50:46;;;;;;;23.88;18.10;;;7.30;99.90;;;12.94;81.51;101982.27;1779228;71;24516;-78
2020/12/02 01:53:12;;;;;;;22.55;16.69;;;7.30;99.90;;;13.05;80.73;101980.77;1790540;71;24408;-77
2020/12/02 01:55:33;;;;;;;23.63;17.48;;;7.30;99.90;;;12.65;81.02;101986.03;1778533;71;24476;-76
2020/12/02 01:57:54;;;;;;;23.04;17.67;;;7.30;99.90;;;12.69;81.62;101983.95;1778483;71;24518;-78
2020/12/02 02:00:16;;;;;;;25.66;18.43;;;7.20;99.90;;;12.87;81.95;101982.98;1771442;71;24472;-77
2020/12/02 02:02:39;;;;;;;24.20;18.15;;;7.30;99.90;;;12.73;81.13;101977.91;1778243;71;24419;-76
2020/12/02 02:05:01;;;;;;;26.94;18.30;;;7.30;99.90;;;12.84;81.57;101981.63;1773350;71;24924;-78
2020/12/02 02:07:23;;;;;;;26.12;18.60;;;7.20;99.90;;;12.78;81.72;101988.05;1766952;71;24460;-77
2020/12/02 02:09:40;;;;;;;26.27;17.89;;;7.20;99.90;;;12.79;81.80;101986.28;1771923;71;24848;-77
2020/12/02 02:12:03;;;;;;;25.91;19.00;;;7.30;99.90;;;12.64;81.71;101980.36;1769710;71;24456;-76
2020/12/02 02:14:29;;;;;;;26.35;18.97;;;7.20;99.90;;;12.70;83.00;101977.86;1764480;72;24546;-76
2020/12/02 02:16:47;;;;;;;25.00;19.08;;;7.20;99.90;;;12.89;82.95;101979.98;1776611;70;24438;-77
2020/12/02 02:19:04;;;;;;;25.56;18.81;;;7.20;99.90;;;12.97;82.01;101974.89;1780147;71;24841;-76
2020/12/02 02:21:25;;;;;;;25.45;19.02;;;7.20;99.90;;;13.04;81.68;101982.91;1771830;71;24477;-76
2020/12/02 02:23:43;;;;;;;24.99;18.02;;;7.30;99.90;;;12.94;80.90;101977.03;1774174;71;24424;-78
2020/12/02 02:26:35;;;;;;;27.24;18.59;;;7.30;99.90;;;12.66;81.58;101979.94;1768647;71;24536;-76
2020/12/02 02:28:58;;;;;;;27.26;19.25;;;7.30;99.90;;;12.64;82.35;101979.47;1769385;71;24421;-78
2020/12/02 02:31:19;;;;;;;28.37;20.00;;;7.20;99.90;;;12.82;82.48;101974.61;1773209;72;24436;-78
2020/12/02 02:33:35;;;;;;;27.50;19.43;;;7.20;99.90;;;12.78;82.72;101976.28;1765948;71;25037;-78
2020/12/02 02:35:52;;;;;;;29.44;20.83;;;7.20;99.90;;;12.78;82.45;101974.97;1776279;71;24488;-76
2020/12/02 02:38:10;;;;;;;29.80;20.34;;;7.20;99.90;;;12.73;82.32;101979.22;1778147;71;24433;-78
2020/12/02 02:40:26;;;;;;;30.48;19.95;;;7.20;99.90;;;12.88;81.83;101977.34;1775940;71;24460;-76
2020/12/02 02:42:46;;;;;;;29.24;19.99;;;7.20;99.90;;;12.60;81.98;101972.43;1772514;71;24483;-76
2020/12/02 02:45:06;;;;;;;30.35;20.48;;;7.20;99.90;;;12.83;82.27;101972.45;1772176;70;24428;-77
2020/12/02 02:47:23;;;;;;;32.04;20.76;;;7.20;99.90;;;12.60;82.39;101975.05;1770041;71;24441;-77
2020/12/02 02:49:39;;;;;;;32.72;20.76;;;7.20;99.90;;;12.67;82.69;101969.96;1766225;71;24452;-78
2020/12/02 02:51:55;;;;;;;32.61;21.56;;;7.20;99.90;;;12.72;83.27;101973.55;1776039;71;24441;-77
2020/12/02 02:54:13;;;;;;;31.01;20.53;;;7.20;99.90;;;12.79;82.74;101974.53;1792452;70;24496;-77
2020/12/02 02:56:29;;;;;;;32.74;20.23;;;7.10;99.90;;;12.75;81.72;101972.72;1766482;71;24455;-77
2020/12/02 02:58:46;;;;;;;35.72;21.93;;;7.20;99.90;;;12.64;81.90;101971.21;1764690;71;24511;-77
2020/12/02 03:01:04;;;;;;;31.87;20.78;;;7.10;99.90;;;12.78;82.92;101967.55;1766734;71;24421;-77
2020/12/02 03:03:22;;;;;;;34.15;20.84;;;7.10;99.90;;;12.62;82.23;101973.31;1777307;71;24426;-76
2020/12/02 03:05:38;;;;;;;32.75;21.58;;;7.10;99.90;;;12.95;83.07;101973.56;1775430;72;24431;-77
2020/12/02 03:07:59;;;;;;;32.96;20.97;;;7.20;99.90;;;13.14;82.51;101966.95;1774824;71;24451;-78
2020/12/02 03:10:19;;;;;;;33.79;21.38;;;7.20;99.90;;;12.99;81.10;101970.58;1771001;71;24446;-78
2020/12/02 03:12:37;;;;;;;32.92;21.53;;;7.20;99.90;;;12.89;81.05;101973.86;1765822;70;24497;-78
2020/12/02 03:14:59;;;;;;;33.73;20.78;;;7.20;99.90;;;12.95;81.76;101979.20;1775171;71;24582;-77
2020/12/02 03:17:21;;;;;;;33.44;20.86;;;7.20;99.90;;;12.79;81.75;101974.11;1774446;71;24424;-77
2020/12/02 03:19:40;;;;;;;38.03;21.12;;;7.20;99.90;;;12.97;81.89;101974.89;1768847;72;24515;-77
2020/12/02 03:22:00;;;;;;;31.76;19.70;;;7.20;99.90;;;12.76;81.92;101973.16;1764091;71;24492;-76
2020/12/02 03:24:17;;;;;;;33.52;21.25;;;7.20;99.90;;;13.02;82.44;101964.13;1777226;71;24462;-77
2020/12/02 03:26:34;;;;;;;31.37;20.91;;;7.20;99.90;;;13.07;81.44;101967.27;1784796;71;24510;-77
2020/12/02 03:28:53;;;;;;;31.68;20.38;;;7.20;99.90;;;13.03;81.50;101966.77;1769495;71;24461;-77
2020/12/02 03:31:14;;;;;;;31.94;20.44;;;7.20;99.90;;;12.88;80.88;101968.19;1776110;71;24437;-76
2020/12/02 03:33:30;;;;;;;32.10;19.99;;;7.20;99.90;;;12.82;81.79;101969.39;1769823;71;24500;-77
2020/12/02 03:35:47;;;;;;;31.65;19.79;;;7.20;99.90;;;12.88;82.08;101971.66;1772187;71;24899;-76
2020/12/02 03:38:03;;;;;;;29.95;18.84;;;7.20;99.90;;;12.78;81.40;101965.83;1771526;71;24999;-77
2020/12/02 03:40:19;;;;;;;30.48;18.94;;;7.20;99.90;;;12.83;81.48;101960.27;1772323;71;24491;-76
2020/12/02 03:42:39;;;;;;;30.97;18.87;;;7.10;99.90;;;12.89;82.73;101962.99;1767668;70;24424;-76
2020/12/02 03:44:55;;;;;;;31.76;19.34;;;7.10;99.90;;;12.79;81.72;101962.77;1774082;71;24432;-76
2020/12/02 03:47:13;;;;;;;29.00;19.38;;;7.10;99.90;;;12.91;82.91;101955.17;1773522;71;24437;-76
2020/12/02 03:49:29;;;;;;;32.30;19.44;;;7.20;99.90;;;12.99;82.25;101952.28;1763747;71;24423;-76
2020/12/02 03:51:45;;;;;;;29.25;18.27;;;7.20;99.90;;;12.95;82.29;101952.64;1767833;71;24511;-77
2020/12/02 03:54:03;;;;;;;27.33;16.99;;;7.20;99.90;;;12.78;82.06;101953.17;1776876;71;25227;-76
2020/12/02 03:56:20;;;;;;;24.90;16.78;;;7.20;99.90;;;12.92;82.11;101953.00;1774483;71;24850;-75
2020/12/02 03:58:37;;;;;;;25.20;16.63;;;7.20;99.90;;;13.07;82.08;101950.27;1770877;71;24423;-77
2020/12/02 04:00:54;;;;;;;25.37;15.95;;;7.20;99.90;;;12.97;81.52;101951.36;1774691;71;24440;-78
2020/12/02 04:03:10;;;;;;;23.77;15.30;;;7.20;99.90;;;12.81;82.02;101954.53;1776674;71;24478;-77
2020/12/02 04:05:27;;;;;;;24.70;16.23;;;7.20;99.90;;;12.86;81.96;101947.67;1766063;71;24514;-79
2020/12/02 04:07:43;;;;;;;26.50;16.18;;;7.20;99.90;;;12.99;82.24;101951.83;1780683;70;24876;-77
2020/12/02 04:10:01;;;;;;;25.51;16.41;;;7.20;99.90;;;12.94;81.01;101948.69;1768877;72;24428;-76
2020/12/02 04:12:17;;;;;;;24.73;16.26;;;7.20;99.90;;;12.75;82.29;101944.86;1776969;71;24567;-77
2020/12/02 04:14:33;;;;;;;24.97;15.33;;;7.20;99.90;;;12.91;82.91;101939.08;1771508;70;24884;-76
2020/12/02 04:16:49;;;;;;;24.10;14.58;;;7.20;99.90;;;12.93;82.45;101946.50;1771385;71;24932;-76
2020/12/02 04:19:06;;;;;;;24.21;15.39;;;7.20;99.90;;;12.83;81.29;101939.36;1763205;72;24876;-76
2020/12/02 04:21:26;;;;;;;22.47;15.35;;;7.20;99.90;;;12.91;82.10;101939.48;1765581;70;24444;-76
2020/12/02 04:23:43;;;;;;;25.92;15.45;;;7.20;99.90;;;12.92;82.31;101939.52;1776843;71;24522;-78
2020/12/02 04:26:04;;;;;;;24.25;15.30;;;7.20;99.90;;;12.93;82.23;101939.96;1777441;72;24471;-77
2020/12/02 04:28:20;;;;;;;25.38;15.64;;;7.20;99.90;;;13.07;82.08;101931.97;1766363;71;24548;-76
2020/12/02 04:30:36;;;;;;;23.65;15.46;;;7.20;99.90;;;13.06;82.06;101934.14;1765577;71;24940;-80
2020/12/02 04:32:53;;;;;;;27.23;15.79;;;7.20;99.90;;;13.02;81.58;101934.06;1767709;71;24464;-76
2020/12/02 04:35:10;;;;;;;27.17;17.95;;;7.20;99.90;;;13.05;81.47;101939.34;1770745;71;25249;-78
2020/12/02 04:37:26;;;;;;;29.49;18.40;;;7.20;99.90;;;13.01;81.29;101934.48;1770303;71;24470;-76
2020/12/02 04:39:43;;;;;;;37.20;21.04;;;7.20;99.90;;;12.97;80.81;101939.59;1772165;71;24486;-76
2020/12/02 04:41:59;;;;;;;37.40;21.63;;;7.20;99.90;;;12.92;81.21;101934.70;1770587;71;24415;-76
2020/12/02 04:44:17;;;;;;;43.32;23.04;;;7.20;99.90;;;12.92;82.31;101934.70;1768605;72;24882;-79
2020/12/02 04:46:37;;;;;;;40.29;23.18;;;7.20;99.90;;;12.95;81.84;101932.14;1769259;71;24465;-77
2020/12/02 04:48:57;;;;;;;44.13;25.54;;;7.20;99.90;;;12.88;81.61;101930.29;1774187;71;24494;-78
2020/12/02 04:51:19;;;;;;;43.32;24.60;;;7.20;99.90;;;12.90;81.85;101927.28;1768218;71;24884;-77
2020/12/02 04:53:40;;;;;;;44.47;24.89;;;7.20;99.90;;;12.80;81.70;101926.23;1775537;71;24875;-77
2020/12/02 04:56:12;;;;;;;43.37;23.93;;;7.10;99.90;;;12.73;81.77;101922.14;1771734;71;24639;-77
2020/12/02 04:58:33;;;;;;;43.43;23.82;;;7.10;99.90;;;12.73;83.65;101919.11;1773345;71;24426;-76
2020/12/02 05:00:49;;;;;;;45.76;24.95;;;7.10;99.90;;;12.79;82.83;101912.69;1755347;72;24874;-77
2020/12/02 05:03:14;;;;;;;45.94;24.94;;;7.00;99.90;;;12.64;83.25;101916.75;1777052;71;24403;-77
2020/12/02 05:05:30;;;;;;;49.91;25.15;;;7.00;99.90;;;12.60;82.00;101906.66;1773714;72;24463;-77
2020/12/02 05:07:46;;;;;;;50.41;25.53;;;7.00;99.90;;;12.63;83.17;101912.39;1769164;71;24429;-76
2020/12/02 05:10:08;;;;;;;50.77;25.42;;;7.00;99.90;;;12.69;82.78;101909.88;1762698;72;24950;-77
2020/12/02 05:12:28;;;;;;;52.88;26.91;;;7.00;99.90;;;12.59;82.66;101910.55;1766268;71;24441;-76
2020/12/02 05:14:48;;;;;;;53.09;26.67;;;6.90;99.90;;;12.78;82.99;101908.73;1777731;70;24497;-75
2020/12/02 05:17:15;;;;;;;47.70;25.26;;;6.90;99.90;;;12.75;82.64;101912.19;1779621;71;24499;-77
2020/12/02 05:19:31;;;;;;;45.90;24.70;;;6.90;99.90;;;12.81;82.84;101913.61;1774053;71;24444;-78
2020/12/02 05:21:47;;;;;;;46.60;24.77;;;6.90;99.90;;;12.72;81.65;101912.55;1769396;72;24495;-77
2020/12/02 05:24:10;;;;;;;49.67;25.66;;;6.90;99.90;;;12.77;82.60;101910.46;1769168;71;24443;-77
2020/12/02 05:26:27;;;;;;;46.60;23.53;;;7.00;99.90;;;12.76;82.88;101916.97;1765508;71;24432;-77
2020/12/02 05:28:45;;;;;;;44.11;24.20;;;7.00;99.90;;;12.70;82.25;101920.37;1771080;71;24471;-78
2020/12/02 05:31:09;;;;;;;44.63;24.67;;;7.00;99.90;;;12.67;83.39;101911.16;1767610;72;24442;-77
2020/12/02 05:33:37;;;;;;;48.24;25.20;;;7.00;99.90;;;12.60;82.30;101907.11;1767672;71;24470;-77
2020/12/02 05:35:57;;;;;;;45.71;24.85;;;7.00;99.90;;;12.59;83.00;101910.55;1771722;71;24849;-77
2020/12/02 05:38:25;;;;;;;51.99;26.46;;;7.00;99.90;;;12.54;82.50;101910.88;1769932;71;24500;-76
2020/12/02 05:40:42;;;;;;;53.46;26.84;;;6.90;99.90;;;12.60;83.14;101911.03;1774823;71;24439;-76
2020/12/02 05:43:04;;;;;;;46.19;24.42;;;6.90;99.90;;;12.55;84.03;101910.91;1769477;70;24962;-77
2020/12/02 05:45:24;;;;;;;49.34;25.80;;;6.90;99.90;;;12.45;83.05;101909.41;1774370;70;24982;-77
2020/12/02 05:47:41;;;;;;;48.69;24.52;;;6.90;99.90;;;12.35;83.68;101906.14;1767766;71;24497;-75
2020/12/02 05:50:00;;;;;;;46.88;23.58;;;6.80;99.90;;;12.50;84.06;101907.35;1776793;71;24515;-77
2020/12/02 05:52:24;;;;;;;44.57;22.95;;;6.80;99.90;;;12.50;83.13;101907.77;1781087;70;24468;-77
2020/12/02 05:54:41;;;;;;;42.64;21.72;;;6.90;99.90;;;12.68;84.00;101905.48;1776534;71;24856;-76
2020/12/02 05:57:04;;;;;;;44.39;22.99;;;6.80;99.90;;;12.49;82.96;101902.95;1773046;70;24431;-76
2020/12/02 05:59:22;;;;;;;40.79;22.11;;;6.90;99.90;;;12.69;83.28;101901.63;1770349;71;24515;-75
2020/12/02 06:01:40;;;;;;;40.54;20.39;;;6.90;99.90;;;12.51;82.86;101899.95;1772982;72;24412;-76
2020/12/02 06:03:59;;;;;;;36.66;20.78;;;6.90;99.90;;;12.76;84.18;101898.26;1779048;70;24444;-78
2020/12/02 06:06:16;;;;;;;36.80;20.77;;;6.90;99.90;;;12.79;82.94;101902.23;1770780;71;24479;-74
2020/12/02 06:08:46;;;;;;;35.64;19.36;;;6.90;99.90;;;12.85;83.08;101897.56;1777907;70;24574;-75
2020/12/02 06:11:36;;;;;;;35.22;19.86;;;6.90;99.90;;;12.77;82.43;101897.84;1773756;71;24527;-74
2020/12/02 06:13:57;;;;;;;36.44;18.71;;;6.90;99.90;;;12.78;82.75;101895.25;1778387;71;24887;-78
2020/12/02 06:16:18;;;;;;;32.33;17.45;;;6.90;99.90;;;12.60;82.29;101896.66;1773693;71;24509;-77
2020/12/02 06:18:37;;;;;;;37.18;18.62;;;6.90;99.90;;;12.58;83.37;101892.70;1774357;71;24894;-78
2020/12/02 06:20:53;;;;;;;33.20;18.28;;;6.90;99.90;;;12.68;83.33;101892.42;1751706;71;25032;-76
2020/12/02 06:23:09;;;;;;;32.83;17.70;;;6.90;99.90;;;12.70;83.57;101894.23;1749420;72;24462;-76
2020/12/02 06:25:53;;;;;;;31.79;18.03;;;6.90;99.90;;;12.85;83.05;101892.33;1770347;71;24454;-78
2020/12/02 06:28:11;;;;;;;33.12;17.33;;;6.90;99.90;;;12.86;82.33;101883.20;1768737;71;24452;-78
2020/12/02 06:30:29;;;;;;;32.62;17.27;;;6.90;99.90;;;12.76;83.98;101890.42;1767720;72;24877;-79
2020/12/02 06:33:14;;;;;;;29.65;16.48;;;6.90;99.90;;;12.82;83.33;101878.76;1741886;71;24509;-76
2020/12/02 06:35:30;;;;;;;29.54;17.10;;;6.90;99.90;;;12.86;82.51;101866.63;1749843;72;24427;-75
2020/12/02 06:37:50;;;;;;;34.23;17.20;;;6.90;99.90;;;12.77;82.33;101875.17;1759358;71;24900;-76
2020/12/02 06:40:07;;;;;;;31.45;17.23;;;6.90;99.90;;;12.77;82.98;101875.62;1737040;72;24580;-76
2020/12/02 06:42:34;;;;;;;28.40;16.11;;;6.90;99.90;;;12.88;82.44;101871.02;1759297;72;24449;-78
2020/12/02 06:45:15;;;;;;;32.80;16.70;;;6.90;99.90;;;12.81;81.88;101867.86;1755219;71;24548;-75
2020/12/02 06:47:33;;;;;;;29.90;15.59;;;6.90;99.90;;;12.75;82.86;101875.60;1755776;71;24530;-76
2020/12/02 06:49:57;;;;;;;28.90;16.40;;;6.90;99.90;;;12.64;83.27;101878.86;1765824;71;24481;-76
2020/12/02 06:52:25;;;;;;;27.63;15.82;;;6.90;99.90;;;12.77;83.24;101872.56;1758842;71;24863;-76
2020/12/02 06:54:43;;;;;;;27.58;15.46;;;6.90;99.90;;;12.85;82.10;101868.36;1760355;71;24458;-77
2020/12/02 06:57:07;;;;;;;25.37;15.27;;;6.90;99.90;;;12.88;82.52;101864.48;1756886;71;24878;-77
2020/12/02 06:59:23;;;;;;;25.53;14.53;;;6.90;99.90;;;12.68;83.05;101870.21;1748406;71;24458;-77
2020/12/02 07:01:41;;;;;;;25.00;15.14;;;6.90;99.90;;;12.62;82.44;101872.30;1759094;71;24951;-76
2020/12/02 07:04:06;;;;;;;23.84;15.10;;;6.90;99.90;;;12.49;83.31;101867.69;1760989;71;24445;-77
2020/12/02 07:06:26;;;;;;;24.50;14.74;;;6.90;99.90;;;12.49;82.94;101874.67;1770897;71;24525;-75
2020/12/02 07:08:44;;;;;;;23.07;13.50;;;6.80;99.90;;;12.57;83.77;101868.72;1762260;71;24623;-76
2020/12/02 07:11:12;;;;;;;22.06;14.61;;;6.80;99.90;;;12.50;82.93;101860.74;1768519;71;24429;-77
2020/12/02 07:13:36;;;;;;;21.17;14.02;;;6.80;99.90;;;12.58;84.02;101852.21;1758194;71;24943;-76
2020/12/02 07:15:52;;;;;;;21.73;14.24;;;6.80;99.90;;;12.68;83.13;101859.34;1767044;71;24459;-77
2020/12/02 07:18:23;;;;;;;19.52;13.43;;;6.80;99.90;;;12.79;83.06;101859.52;1764567;71;24515;-77
2020/12/02 07:20:43;;;;;;;18.79;12.99;;;6.80;99.90;;;12.73;83.21;101863.34;1754411;71;24866;-76
2020/12/02 07:23:01;;;;;;;21.01;13.41;;;6.80;99.90;;;12.48;82.90;101862.44;1732207;72;24440;-78
2020/12/02 07:25:17;;;;;;;17.03;12.90;;;6.80;99.90;;;12.61;83.47;101864.02;1762704;71;24485;-73
2020/12/02 07:27:34;;;;;;;17.51;12.11;;;6.80;99.90;;;12.74;83.45;101862.06;1765774;72;24443;-74
2020/12/02 07:29:59;;;;;;;17.38;12.38;;;6.80;99.90;;;12.70;82.46;101861.56;1755072;72;26853;-75
2020/12/02 07:32:19;;;;;;;15.12;11.43;;;6.90;99.90;;;12.76;82.95;101857.75;1765298;71;24894;-76
2020/12/02 07:34:40;;;;;;;15.48;11.44;;;6.90;99.90;;;12.99;82.40;101852.48;1769714;71;24435;-77
2020/12/02 07:37:04;;;;;;;17.68;12.31;;;6.90;99.90;;;12.78;82.19;101861.69;1756098;71;24434;-78
2020/12/02 07:39:25;;;;;;;17.40;12.12;;;6.90;99.90;;;12.72;81.62;101857.67;1766727;71;24409;-75
2020/12/02 07:42:04;;;;;;;16.24;11.49;;;6.90;99.90;;;12.68;82.80;101867.18;1770894;71;24939;-77
2020/12/02 07:44:22;;;;;;;15.35;10.98;;;6.90;99.90;;;12.64;82.34;101869.72;1755130;71;24422;-75
2020/12/02 07:46:39;;;;;;;16.19;10.91;;;6.90;99.90;;;12.75;82.77;101863.84;1753759;71;24539;-77
2020/12/02 07:49:05;;;;;;;14.80;11.28;;;6.90;99.90;;;12.75;82.21;101866.45;1765232;71;24446;-74
2020/12/02 07:51:26;;;;;;;16.87;12.03;;;6.90;99.90;;;12.84;82.86;101856.56;1767686;71;24493;-77
2020/12/02 07:53:51;;;;;;;14.02;11.10;;;6.90;99.90;;;12.58;83.56;101866.58;1765464;71;24521;-75
2020/12/02 07:56:14;;;;;;;14.10;10.82;;;6.90;99.90;;;12.59;82.27;101866.12;1757660;71;24414;-77
2020/12/02 07:58:37;;;;;;;15.61;10.77;;;6.90;99.90;;;12.64;83.19;101867.10;1754461;71;24580;-73
2020/12/02 08:03:37;;;;;;;17.82;11.40;;;6.90;99.90;;;12.94;81.96;101857.19;1730068;72;25235;-74
2020/12/02 08:08:29;;;;;;;15.68;11.48;;;6.90;99.90;;;13.12;81.86;101855.78;1726880;72;25373;-74
2020/12/02 08:10:45;;;;;;;15.02;10.80;;;7.00;99.90;;;13.00;81.66;101866.05;1710273;74;24469;-76
2020/12/02 08:13:10;;;;;;;16.02;12.09;;;7.00;99.90;;;12.86;81.05;101864.91;1705424;74;24891;-75
2020/12/02 08:15:28;;;;;;;14.97;11.74;;;7.00;99.90;;;13.02;81.55;101855.20;1703970;74;24516;-77
2020/12/02 08:18:14;;;;;;;14.26;10.55;;;7.00;99.90;;;13.05;81.24;101855.25;1707214;74;24858;-77
2020/12/02 08:20:34;;;;;;;17.43;11.79;;;7.10;99.90;;;13.03;80.89;101853.45;1699493;74;24458;-74
2020/12/02 08:22:55;;;;;;;15.02;11.42;;;7.00;99.90;;;13.01;81.40;101846.03;1709817;74;25004;-76
2020/12/02 08:25:23;;;;;;;15.35;11.47;;;7.00;99.90;;;12.90;81.32;101836.64;1706172;74;24874;-78
2020/12/02 08:27:41;;;;;;;13.76;10.46;;;7.00;99.90;;;12.92;81.53;101832.33;1712260;74;24465;-74
2020/12/02 08:30:01;;;;;;;14.13;10.89;;;7.10;99.90;;;12.75;81.36;101831.17;1698561;75;24482;-75
2020/12/02 08:32:23;;;;;;;15.02;11.58;;;7.10;99.90;;;12.85;82.61;101833.06;1698370;74;24748;-78
2020/12/02 08:34:41;;;;;;;14.47;11.51;;;7.10;99.90;;;13.05;81.67;101825.59;1702064;74;24441;-74
2020/12/02 08:39:58;;;;;;;14.91;11.47;;;7.10;99.90;;;13.30;80.38;101818.16;1725816;72;25373;-77
2020/12/02 08:42:24;;;;;;;16.76;12.05;;;7.10;99.90;;;13.11;81.42;101817.84;1688544;75;24730;-79
2020/12/02 08:44:42;;;;;;;14.24;10.88;;;7.20;99.90;;;13.02;81.13;101819.02;1689192;75;25049;-75
2020/12/02 08:47:02;;;;;;;15.50;11.36;;;7.20;99.90;;;13.07;80.87;101814.75;1695903;75;25029;-75
2020/12/02 08:49:26;;;;;;;15.41;11.10;;;7.20;99.90;;;12.81;81.81;101814.28;1702128;74;24901;-75
2020/12/02 08:51:45;;;;;;;15.81;11.16;;;7.20;99.90;;;12.59;82.75;101814.77;1696353;75;24456;-77
2020/12/02 08:56:46;;;;;;;15.73;11.59;;;7.10;99.90;;;13.12;82.97;101811.33;1738046;72;25234;-78
2020/12/02 08:59:04;;;;;;;15.50;11.86;;;7.20;99.90;;;13.17;82.81;101810.09;1715635;73;24973;-74
2020/12/02 09:01:20;;;;;;;17.03;12.30;;;7.20;99.90;;;13.15;82.30;101809.21;1718168;73;24439;-77
2020/12/02 09:03:36;;;;;;;14.57;11.82;;;7.20;99.90;;;13.17;81.83;101809.67;1718548;73;24717;-76
2020/12/02 09:06:06;;;;;;;18.76;13.12;;;7.20;99.90;;;13.21;80.77;101807.98;1724942;73;24525;-74
2020/12/02 09:08:23;;;;;;;19.82;13.83;;;7.20;99.90;;;13.16;81.64;101801.39;1721535;73;24531;-75
2020/12/02 09:10:39;;;;;;;20.64;14.74;;;7.30;99.90;;;12.89;81.17;101790.88;1722390;73;24502;-75
2020/12/02 09:12:55;;;;;;;26.02;16.40;;;7.20;99.90;;;12.59;81.80;101800.39;1716246;73;24494;-76
2020/12/02 09:15:12;;;;;;;23.75;16.57;;;7.20;99.90;;;12.80;83.72;101799.47;1721937;73;24562;-74
2020/12/02 09:17:29;;;;;;;23.49;16.50;;;7.30;99.90;;;13.02;82.92;101796.80;1714799;73;24469;-78
2020/12/02 09:19:44;;;;;;;25.02;17.06;;;7.20;99.90;;;12.88;81.78;101786.06;1715246;73;24503;-76
2020/12/02 09:22:01;;;;;;;26.11;17.55;;;7.20;99.90;;;12.76;82.20;101790.21;1719501;73;25021;-73
2020/12/02 09:24:19;;;;;;;26.64;17.15;;;7.20;99.90;;;12.78;83.60;101778.95;1716351;73;24465;-75
2020/12/02 09:26:38;;;;;;;27.15;18.25;;;7.20;99.90;;;12.94;82.40;101778.34;1709040;73;24495;-79
2020/12/02 09:28:55;;;;;;;26.31;18.61;;;7.30;99.90;;;13.16;82.78;101778.27;1718959;73;24528;-74
2020/12/02 09:31:14;;;;;;;25.32;17.45;;;7.30;99.90;;;13.15;81.39;101777.38;1724557;73;24586;-77
2020/12/02 09:33:30;;;;;;;29.50;18.03;;;7.30;99.90;;;13.00;81.45;101772.31;1721203;73;24579;-76
2020/12/02 09:35:48;;;;;;;27.84;18.33;;;7.30;99.90;;;13.13;81.68;101774.30;1718216;73;24508;-75
2020/12/02 09:38:04;;;;;;;25.81;17.38;;;7.30;99.90;;;12.94;81.79;101772.23;1719037;73;24514;-75
2020/12/02 09:40:21;;;;;;;29.19;18.76;;;7.30;99.90;;;12.86;81.58;101769.50;1716334;73;24492;-75
2020/12/02 09:43:30;;;;;;;29.67;18.56;;;7.30;99.90;;;13.02;82.80;101770.23;1720023;73;24975;-73
2020/12/02 09:45:56;;;;;;;29.82;18.83;;;7.30;99.90;;;12.87;81.02;101771.66;1716494;73;24516;-75
2020/12/02 09:48:18;;;;;;;24.35;17.06;;;7.30;99.90;;;12.91;82.63;101767.84;1724961;73;24462;-74
2020/12/02 09:50:34;;;;;;;27.47;17.99;;;7.30;99.90;;;12.89;81.99;101769.96;1717759;73;24972;-76
2020/12/02 09:52:52;;;;;;;25.05;16.81;;;7.30;99.90;;;12.84;82.50;101767.70;1716075;73;24602;-75